Time;durP1;ratioP1;P1;durP2;ratioP2;P2;SDS_P1;SDS_P2;PMS_P1;PMS_P2;Temp;Humidity;BMP_temperature;BMP_pressure;BME280_temperature;BME280_humidity;BME280_pressure;Samples;Min_cycle;Max_cycle;Signal;HPM_P1;HPM_P2
2022/04/07 00:01:03;;;;;;;9.80;2.63;;;10.00;99.90;;;;;;5058035;28;20396;-58
2022/04/07 00:03:29;;;;;;;4.88;2.15;;;10.00;99.90;;;;;;5057113;28;20114;-57
2022/04/07 00:05:55;;;;;;;4.18;2.42;;;10.00;99.90;;;;;;5060569;28;20441;-59
2022/04/07 00:08:20;;;;;;;5.03;2.50;;;10.10;99.90;;;;;;5064137;28;20082;-58
2022/04/07 00:10:48;;;;;;;3.67;1.95;;;10.10;99.90;;;;;;5055899;28;20127;-58
2022/04/07 00:13:13;;;;;;;6.03;2.13;;;10.10;99.90;;;;;;5051588;28;20025;-59
2022/04/07 00:15:39;;;;;;;3.55;1.95;;;10.10;99.90;;;;;;5055518;28;20658;-57
2022/04/07 00:18:06;;;;;;;4.50;2.10;;;10.20;99.90;;;;;;5056660;28;20029;-54
2022/04/07 00:20:32;;;;;;;4.07;1.90;;;10.10;99.90;;;;;;5060081;28;20017;-57
2022/04/07 00:22:58;;;;;;;4.25;1.90;;;10.10;99.90;;;;;;5059637;28;20029;-58
2022/04/07 00:25:25;;;;;;;2.45;1.70;;;10.10;99.90;;;;;;5058387;28;20032;-53
2022/04/07 00:27:51;;;;;;;5.68;2.13;;;10.10;99.90;;;;;;5058482;28;20120;-59
2022/04/07 00:30:20;;;;;;;4.63;2.05;;;10.10;99.90;;;;;;5048256;28;20103;-56
2022/04/07 00:32:46;;;;;;;2.50;1.70;;;10.00;99.90;;;;;;5061468;28;20107;-57
2022/04/07 00:35:12;;;;;;;4.57;1.50;;;10.00;99.90;;;;;;5059482;28;20017;-54
2022/04/07 00:37:38;;;;;;;4.22;1.70;;;10.00;99.90;;;;;;5058670;28;20186;-55
2022/04/07 00:40:07;;;;;;;4.00;2.10;;;10.00;99.90;;;;;;5062660;28;20097;-59
2022/04/07 00:42:32;;;;;;;3.90;1.75;;;10.00;99.90;;;;;;5065155;28;20077;-57
2022/04/07 00:44:58;;;;;;;2.72;1.35;;;10.00;99.90;;;;;;5063544;28;20021;-57
2022/04/07 00:47:25;;;;;;;1.50;1.20;;;9.90;99.90;;;;;;5043123;28;20500;-57
2022/04/07 00:49:52;;;;;;;3.97;1.35;;;9.90;99.90;;;;;;5061425;28;20029;-56
2022/04/07 00:52:18;;;;;;;2.63;1.25;;;9.90;99.90;;;;;;5069457;28;20036;-59
2022/04/07 00:54:44;;;;;;;1.35;0.90;;;9.80;99.90;;;;;;5073085;28;20032;-60
2022/04/07 00:57:10;;;;;;;1.80;0.93;;;9.80;99.90;;;;;;5070341;28;20020;-58
2022/04/07 00:59:38;;;;;;;2.53;0.85;;;9.70;99.90;;;;;;5067653;28;20100;-59
2022/04/07 01:02:03;;;;;;;1.42;0.68;;;9.70;99.90;;;;;;5066379;28;20036;-57
2022/04/07 01:04:29;;;;;;;1.95;0.98;;;9.70;99.90;;;;;;5065978;28;20028;-56
2022/04/07 01:06:55;;;;;;;3.38;0.98;;;9.60;99.90;;;;;;5061668;28;20025;-56
2022/04/07 01:09:21;;;;;;;2.70;0.70;;;9.60;99.90;;;;;;5067171;28;20025;-53
2022/04/07 01:11:49;;;;;;;1.92;0.60;;;9.60;99.90;;;;;;5057621;28;20025;-57
2022/04/07 01:14:14;;;;;;;1.35;0.68;;;9.60;99.90;;;;;;5061557;28;20117;-57
2022/04/07 01:16:40;;;;;;;1.83;0.73;;;9.50;99.90;;;;;;5066735;28;20049;-57
2022/04/07 01:19:06;;;;;;;1.38;0.63;;;9.50;99.90;;;;;;5061844;28;20035;-56
2022/04/07 01:21:34;;;;;;;1.42;0.60;;;9.50;99.90;;;;;;5067472;28;20033;-57
2022/04/07 01:24:08;;;;;;;2.40;0.70;;;9.40;99.90;;;;;;5056682;28;20025;-57
2022/04/07 01:26:41;;;;;;;1.33;0.90;;;9.40;99.90;;;;;;5057097;28;20096;-56
2022/04/07 01:29:10;;;;;;;0.75;0.63;;;9.40;99.90;;;;;;5065296;28;20032;-55
2022/04/07 01:31:36;;;;;;;1.25;0.60;;;9.40;99.90;;;;;;5066307;28;20067;-56
2022/04/07 01:34:04;;;;;;;2.58;0.77;;;9.40;99.90;;;;;;5071671;28;20078;-57
2022/04/07 01:36:31;;;;;;;3.50;0.70;;;9.40;99.90;;;;;;5075625;28;20021;-56
2022/04/07 01:38:58;;;;;;;1.98;0.57;;;9.40;99.90;;;;;;5063411;28;20035;-58
2022/04/07 01:41:26;;;;;;;0.75;0.60;;;9.40;99.90;;;;;;5066457;28;20600;-56
2022/04/07 01:43:55;;;;;;;1.25;0.60;;;9.30;99.90;;;;;;5060066;28;20036;-53
2022/04/07 01:46:22;;;;;;;4.97;1.17;;;9.30;99.90;;;;;;5050707;28;20420;-57
2022/04/07 01:48:48;;;;;;;6.40;0.88;;;9.20;99.90;;;;;;5059188;28;20048;-55
2022/04/07 01:51:15;;;;;;;2.88;0.88;;;9.30;99.90;;;;;;5066599;28;20116;-55
2022/04/07 01:53:41;;;;;;;1.48;1.00;;;9.20;99.90;;;;;;5060468;28;20021;-55
2022/04/07 01:56:09;;;;;;;4.70;1.95;;;9.20;99.90;;;;;;5048569;28;20036;-57
2022/04/07 01:58:35;;;;;;;2.63;1.10;;;9.20;99.90;;;;;;5067615;28;20028;-55
2022/04/07 02:01:03;;;;;;;2.92;1.20;;;9.30;99.90;;;;;;5064212;28;20066;-56
2022/04/07 02:03:28;;;;;;;4.60;1.20;;;9.20;99.90;;;;;;5071322;28;20036;-53
2022/04/07 02:05:54;;;;;;;3.08;1.13;;;9.30;99.90;;;;;;5055939;28;20029;-57
2022/04/07 02:08:19;;;;;;;1.45;0.90;;;9.20;99.90;;;;;;5061027;28;20555;-56
2022/04/07 02:10:45;;;;;;;3.88;0.80;;;9.20;99.90;;;;;;5068497;28;20056;-56
2022/04/07 02:13:10;;;;;;;2.13;1.02;;;9.20;99.90;;;;;;5054344;28;20033;-57
2022/04/07 02:15:36;;;;;;;3.33;1.00;;;9.20;99.90;;;;;;5055375;28;20068;-56
2022/04/07 02:18:02;;;;;;;1.75;1.17;;;9.20;99.90;;;;;;5056414;28;20028;-52
2022/04/07 02:20:27;;;;;;;3.83;0.90;;;9.20;99.90;;;;;;5064984;28;20638;-57
2022/04/07 02:22:53;;;;;;;1.67;0.90;;;9.20;99.90;;;;;;5062237;28;20037;-57
2022/04/07 02:25:23;;;;;;;2.50;0.82;;;9.20;99.90;;;;;;5059447;28;20043;-58
2022/04/07 02:27:49;;;;;;;1.67;0.90;;;9.20;99.90;;;;;;5068923;28;20029;-59
2022/04/07 02:30:14;;;;;;;2.22;0.80;;;9.20;99.90;;;;;;5060947;28;20021;-59
2022/04/07 02:32:43;;;;;;;2.90;1.00;;;9.20;99.90;;;;;;5053406;28;20084;-56
2022/04/07 02:35:11;;;;;;;1.08;0.90;;;9.20;99.90;;;;;;5056892;28;20029;-58
2022/04/07 02:37:36;;;;;;;3.05;1.00;;;9.20;99.90;;;;;;5054395;28;20033;-59
2022/04/07 02:40:03;;;;;;;2.72;1.10;;;9.20;99.90;;;;;;5050704;28;20029;-55
2022/04/07 02:42:28;;;;;;;1.73;0.80;;;9.30;99.90;;;;;;5069129;28;20039;-57
2022/04/07 02:44:54;;;;;;;1.38;0.50;;;9.20;99.90;;;;;;5057985;28;20403;-57
2022/04/07 02:47:21;;;;;;;1.90;0.75;;;9.30;99.90;;;;;;5059235;28;20448;-58
2022/04/07 02:49:46;;;;;;;9.65;1.60;;;9.30;99.90;;;;;;5062857;28;20051;-57
2022/04/07 02:52:12;;;;;;;1.67;0.70;;;9.30;99.90;;;;;;5067120;28;20039;-57
2022/04/07 02:54:38;;;;;;;0.80;0.60;;;9.30;99.90;;;;;;5053174;28;20033;-59
2022/04/07 02:57:04;;;;;;;1.40;0.77;;;9.30;99.90;;;;;;5057756;28;20051;-53
2022/04/07 02:59:31;;;;;;;5.78;1.05;;;9.30;99.90;;;;;;5062093;28;20029;-59
2022/04/07 03:01:58;;;;;;;1.13;0.65;;;9.30;99.90;;;;;;5060942;28;20553;-59
2022/04/07 03:04:24;;;;;;;4.10;0.80;;;9.30;99.90;;;;;;5070423;28;20390;-51
2022/04/07 03:06:53;;;;;;;0.82;0.50;;;9.20;99.90;;;;;;5069474;28;20146;-57
2022/04/07 03:09:19;;;;;;;1.05;0.40;;;9.20;99.90;;;;;;5066151;28;20086;-54
2022/04/07 03:11:48;;;;;;;1.48;0.50;;;9.20;99.90;;;;;;5061411;28;20094;-55
2022/04/07 03:14:14;;;;;;;2.13;0.70;;;9.20;99.90;;;;;;5061548;28;20100;-57
2022/04/07 03:16:41;;;;;;;1.67;0.40;;;9.20;99.90;;;;;;5056791;28;20056;-52
2022/04/07 03:19:07;;;;;;;3.95;0.73;;;9.20;99.90;;;;;;5069310;28;20102;-56
2022/04/07 03:21:33;;;;;;;5.90;1.90;;;9.20;99.90;;;;;;5063977;28;20033;-59
2022/04/07 03:23:58;;;;;;;2.55;0.60;;;9.20;99.90;;;;;;5057537;28;20085;-55
2022/04/07 03:26:24;;;;;;;2.85;0.60;;;9.20;99.90;;;;;;5067281;28;20077;-56
2022/04/07 03:28:49;;;;;;;1.60;0.65;;;9.20;99.90;;;;;;5059796;28;20025;-58
2022/04/07 03:31:15;;;;;;;0.60;0.50;;;9.20;99.90;;;;;;5065278;28;20412;-56
2022/04/07 03:33:40;;;;;;;1.55;0.50;;;9.20;99.90;;;;;;5059928;28;20395;-54
2022/04/07 03:36:06;;;;;;;3.25;0.75;;;9.20;99.90;;;;;;5070196;28;20111;-57
2022/04/07 03:38:32;;;;;;;1.02;0.60;;;9.20;99.90;;;;;;5067123;28;20036;-57
2022/04/07 03:40:57;;;;;;;2.33;0.50;;;9.20;99.90;;;;;;5059262;28;20032;-58
2022/04/07 03:43:23;;;;;;;1.80;0.80;;;9.30;99.90;;;;;;5054146;28;20033;-57
2022/04/07 03:45:49;;;;;;;0.75;0.60;;;9.30;99.90;;;;;;5057461;28;20043;-56
2022/04/07 03:48:14;;;;;;;1.45;0.73;;;9.30;99.90;;;;;;5045828;28;20037;-59
2022/04/07 03:50:40;;;;;;;0.88;0.32;;;9.30;99.90;;;;;;5061646;28;20024;-53
2022/04/07 03:53:06;;;;;;;1.05;0.52;;;9.30;99.90;;;;;;5059572;28;20051;-49
2022/04/07 03:55:32;;;;;;;1.45;0.68;;;9.30;99.90;;;;;;5061670;28;20025;-54
2022/04/07 03:57:57;;;;;;;0.82;0.57;;;9.30;99.90;;;;;;5055415;28;20391;-52
2022/04/07 04:00:23;;;;;;;0.70;0.40;;;9.30;99.90;;;;;;5055481;28;20017;-52
2022/04/07 04:02:50;;;;;;;0.45;0.43;;;9.30;99.90;;;;;;5057206;28;20119;-56
2022/04/07 04:05:17;;;;;;;0.90;0.60;;;9.30;99.90;;;;;;5059727;28;20043;-58
2022/04/07 04:07:42;;;;;;;1.50;0.50;;;9.30;99.90;;;;;;5068042;28;20020;-58
2022/04/07 04:10:08;;;;;;;5.95;0.70;;;9.20;99.90;;;;;;5052487;28;20093;-58
2022/04/07 04:12:34;;;;;;;1.58;0.60;;;9.20;99.90;;;;;;5057757;28;20025;-56
2022/04/07 04:15:01;;;;;;;1.75;0.63;;;9.20;99.90;;;;;;5068325;28;20123;-57
2022/04/07 04:17:30;;;;;;;3.58;0.68;;;9.10;99.90;;;;;;5061444;28;20021;-50
2022/04/07 04:19:55;;;;;;;3.55;0.60;;;9.20;99.90;;;;;;5058883;28;20032;-59
2022/04/07 04:22:21;;;;;;;1.15;0.50;;;9.20;99.90;;;;;;5068978;28;20028;-58
2022/04/07 04:24:46;;;;;;;0.60;0.43;;;9.20;99.90;;;;;;5057262;28;20539;-55
2022/04/07 04:27:12;;;;;;;2.15;0.77;;;9.20;99.90;;;;;;5058692;28;20048;-55
2022/04/07 04:29:39;;;;;;;1.58;0.70;;;9.20;99.90;;;;;;5056891;28;20040;-54
2022/04/07 04:32:05;;;;;;;1.02;0.60;;;9.20;99.90;;;;;;5060392;28;20021;-56
2022/04/07 04:34:31;;;;;;;1.95;0.63;;;9.20;99.90;;;;;;5051372;28;20029;-57
2022/04/07 04:36:56;;;;;;;2.30;0.40;;;9.10;99.90;;;;;;5065394;28;20022;-54
2022/04/07 04:39:22;;;;;;;1.50;0.77;;;9.20;99.90;;;;;;5050530;28;20487;-58
2022/04/07 04:41:47;;;;;;;1.52;0.77;;;9.20;99.90;;;;;;5068125;28;20028;-59
2022/04/07 04:44:13;;;;;;;3.05;0.70;;;9.20;99.90;;;;;;5058696;28;20562;-57
2022/04/07 04:46:39;;;;;;;1.40;0.70;;;9.20;99.90;;;;;;5054915;28;20095;-59
2022/04/07 04:49:04;;;;;;;2.90;0.98;;;9.20;99.90;;;;;;5043983;28;20025;-54
2022/04/07 04:51:30;;;;;;;1.10;0.70;;;9.20;99.90;;;;;;5055833;28;20017;-57
2022/04/07 04:53:55;;;;;;;0.88;0.70;;;9.20;99.90;;;;;;5064374;28;20037;-59
2022/04/07 04:56:21;;;;;;;1.00;0.75;;;9.30;99.90;;;;;;5067739;28;20020;-59
2022/04/07 04:58:46;;;;;;;2.67;1.00;;;9.30;99.90;;;;;;5056839;28;20029;-52
2022/04/07 05:01:12;;;;;;;1.23;0.73;;;9.30;99.90;;;;;;5053975;28;20024;-58
2022/04/07 05:03:37;;;;;;;2.22;0.70;;;9.30;99.90;;;;;;5058260;28;20029;-59
2022/04/07 05:06:03;;;;;;;1.20;0.80;;;9.40;99.90;;;;;;5065796;28;20502;-57
2022/04/07 05:08:28;;;;;;;1.85;0.65;;;9.40;99.90;;;;;;5060226;28;20041;-59
2022/04/07 05:10:54;;;;;;;2.45;0.82;;;9.40;99.90;;;;;;5058190;28;20025;-57
2022/04/07 05:13:22;;;;;;;3.50;0.82;;;9.40;99.90;;;;;;5051801;28;20025;-56
2022/04/07 05:15:47;;;;;;;1.25;0.82;;;9.50;99.90;;;;;;5054120;28;20021;-57
2022/04/07 05:18:13;;;;;;;1.52;0.75;;;9.50;99.90;;;;;;5055684;28;20040;-56
2022/04/07 05:20:39;;;;;;;1.33;0.63;;;9.50;99.90;;;;;;5069433;28;20036;-56
2022/04/07 05:23:04;;;;;;;1.23;0.63;;;9.50;99.90;;;;;;5057623;28;20104;-52
2022/04/07 05:25:30;;;;;;;1.20;0.60;;;9.50;99.90;;;;;;5058487;28;20253;-57
2022/04/07 05:27:55;;;;;;;1.45;0.98;;;9.50;99.90;;;;;;5062359;28;20025;-58
2022/04/07 05:30:21;;;;;;;1.85;0.70;;;9.50;99.90;;;;;;5060089;28;20631;-59
2022/04/07 05:32:47;;;;;;;4.40;1.20;;;9.50;99.90;;;;;;5057281;28;20100;-59
2022/04/07 05:35:13;;;;;;;3.80;0.90;;;9.60;99.90;;;;;;5065915;28;20479;-57
2022/04/07 05:37:39;;;;;;;2.65;0.63;;;9.60;99.90;;;;;;5054298;28;20104;-56
2022/04/07 05:40:08;;;;;;;1.45;0.77;;;9.60;99.90;;;;;;5061718;28;20029;-59
2022/04/07 05:42:34;;;;;;;2.22;0.98;;;9.60;99.90;;;;;;5071183;28;20037;-59
2022/04/07 05:45:00;;;;;;;1.45;0.60;;;9.60;99.90;;;;;;5061163;28;20020;-57
2022/04/07 05:47:25;;;;;;;0.70;0.70;;;9.60;99.90;;;;;;5070886;28;20025;-59
2022/04/07 05:49:53;;;;;;;3.83;0.70;;;9.70;99.90;;;;;;5052044;28;20049;-60
2022/04/07 05:52:19;;;;;;;2.97;0.75;;;9.70;99.90;;;;;;5061145;28;20495;-58
2022/04/07 05:54:44;;;;;;;3.20;0.80;;;9.70;99.90;;;;;;5061838;28;20081;-59
2022/04/07 05:57:10;;;;;;;2.22;0.80;;;9.70;99.90;;;;;;5063359;28;20028;-53
2022/04/07 05:59:35;;;;;;;1.15;0.63;;;9.70;99.90;;;;;;5058982;28;20376;-55
2022/04/07 06:02:01;;;;;;;1.88;0.90;;;9.80;99.90;;;;;;5065884;28;20052;-56
2022/04/07 06:04:27;;;;;;;2.88;0.60;;;9.80;99.90;;;;;;5056717;28;20105;-49
2022/04/07 06:06:52;;;;;;;1.63;1.00;;;9.70;99.90;;;;;;5063014;28;20024;-57
2022/04/07 06:09:18;;;;;;;4.10;0.90;;;9.70;99.90;;;;;;5069437;28;20812;-58
2022/04/07 06:11:43;;;;;;;2.35;0.80;;;9.70;99.90;;;;;;5071440;28;20029;-59
2022/04/07 06:14:09;;;;;;;1.40;0.63;;;9.70;99.90;;;;;;5054211;28;20033;-55
2022/04/07 06:16:34;;;;;;;1.08;0.68;;;9.70;99.90;;;;;;5067952;28;20063;-58
2022/04/07 06:19:00;;;;;;;4.68;0.73;;;9.60;99.90;;;;;;5058992;28;20025;-59
2022/04/07 06:21:29;;;;;;;1.15;0.65;;;9.60;99.90;;;;;;5056811;28;20432;-59
2022/04/07 06:23:55;;;;;;;2.15;1.65;;;9.60;99.90;;;;;;5063152;28;20415;-59
2022/04/07 06:26:20;;;;;;;3.10;0.90;;;9.50;99.90;;;;;;5064031;28;20111;-59
2022/04/07 06:28:46;;;;;;;1.45;0.90;;;9.50;99.90;;;;;;5064025;28;20394;-55
2022/04/07 06:31:11;;;;;;;3.92;0.80;;;9.50;99.90;;;;;;5053540;28;20108;-59
2022/04/07 06:33:37;;;;;;;2.72;1.00;;;9.50;99.90;;;;;;5058489;28;20088;-60
2022/04/07 06:36:04;;;;;;;6.53;0.80;;;9.50;99.90;;;;;;5067800;28;20040;-59
2022/04/07 06:38:33;;;;;;;2.67;1.33;;;9.50;99.90;;;;;;5060627;28;20519;-57
2022/04/07 06:41:00;;;;;;;5.97;1.13;;;9.40;99.90;;;;;;5065761;28;20040;-57
2022/04/07 06:43:26;;;;;;;2.58;0.95;;;9.40;99.90;;;;;;5070768;28;20035;-57
2022/04/07 06:45:52;;;;;;;1.63;1.02;;;9.40;99.90;;;;;;5059780;28;20569;-55
2022/04/07 06:48:17;;;;;;;3.72;1.48;;;9.50;99.90;;;;;;5052913;28;20116;-58
2022/04/07 06:50:44;;;;;;;4.55;1.05;;;9.50;99.90;;;;;;5043378;28;20181;-53
2022/04/07 06:53:09;;;;;;;2.42;0.73;;;9.50;99.90;;;;;;5060924;28;20387;-59
2022/04/07 06:55:35;;;;;;;3.83;0.98;;;9.60;99.90;;;;;;5061686;28;20021;-58
2022/04/07 06:58:02;;;;;;;2.00;0.90;;;9.60;99.90;;;;;;5052852;28;20043;-54
2022/04/07 07:00:35;;;;;;;4.80;1.23;;;9.60;99.90;;;;;;5055092;28;20024;-59
2022/04/07 07:03:03;;;;;;;5.38;1.17;;;9.70;99.90;;;;;;5062936;28;20035;-57
2022/04/07 07:05:31;;;;;;;4.85;0.93;;;9.70;99.90;;;;;;5063107;28;20029;-61
2022/04/07 07:07:56;;;;;;;3.67;1.00;;;9.70;99.90;;;;;;5064169;28;20516;-57
2022/04/07 07:10:29;;;;;;;2.30;0.90;;;9.80;99.90;;;;;;5053049;28;20038;-58
2022/04/07 07:12:55;;;;;;;3.03;0.95;;;9.80;99.90;;;;;;5064139;28;20028;-59
2022/04/07 07:15:21;;;;;;;0.47;0.40;;;9.80;99.90;;;;;;5062095;28;20037;-58
2022/04/07 07:17:47;;;;;;;3.22;1.17;;;9.80;99.90;;;;;;5057701;28;20028;-58
2022/04/07 07:20:13;;;;;;;5.55;3.85;;;9.80;99.90;;;;;;5055452;28;20025;-59
2022/04/07 07:22:42;;;;;;;3.47;1.70;;;9.90;99.90;;;;;;5066574;28;20131;-59
2022/04/07 07:25:10;;;;;;;4.43;2.60;;;9.90;99.90;;;;;;5058114;28;20127;-57
2022/04/07 07:27:41;;;;;;;3.38;1.20;;;9.90;99.90;;;;;;5060881;28;20099;-61
2022/04/07 07:30:09;;;;;;;2.33;0.77;;;9.90;99.90;;;;;;5057784;28;20085;-59
2022/04/07 07:32:36;;;;;;;2.15;0.40;;;10.00;99.90;;;;;;5054691;28;20025;-59
2022/04/07 07:35:02;;;;;;;3.35;1.25;;;10.00;99.90;;;;;;5056952;28;20523;-60
2022/04/07 07:37:27;;;;;;;1.98;0.73;;;9.90;99.90;;;;;;5053870;28;20542;-56
2022/04/07 07:39:53;;;;;;;0.88;0.70;;;9.80;99.90;;;;;;5055553;28;20029;-59
2022/04/07 07:42:18;;;;;;;1.08;0.73;;;9.90;99.90;;;;;;5052919;28;20059;-58
2022/04/07 07:44:44;;;;;;;2.70;0.80;;;9.90;99.90;;;;;;5054799;28;20043;-57
2022/04/07 07:47:09;;;;;;;1.63;0.68;;;9.90;99.90;;;;;;5052953;28;20087;-58
2022/04/07 07:49:35;;;;;;;2.08;0.55;;;10.00;99.90;;;;;;5059385;28;20032;-58
2022/04/07 07:52:02;;;;;;;1.58;0.70;;;10.00;99.90;;;;;;5041996;28;20040;-55
2022/04/07 07:54:28;;;;;;;0.70;0.50;;;10.00;99.90;;;;;;5058942;28;20037;-59
2022/04/07 07:56:54;;;;;;;1.67;0.85;;;10.00;99.90;;;;;;5059664;28;20499;-58
2022/04/07 07:59:20;;;;;;;1.60;0.80;;;10.10;99.90;;;;;;5064186;28;20104;-58
2022/04/07 08:01:46;;;;;;;2.00;0.80;;;10.20;99.90;;;;;;5055191;28;20032;-59
2022/04/07 08:04:12;;;;;;;6.55;0.70;;;10.20;99.90;;;;;;5052459;28;20033;-59
2022/04/07 08:06:39;;;;;;;1.17;0.80;;;10.20;99.90;;;;;;5055719;28;20032;-59
2022/04/07 08:09:05;;;;;;;1.35;0.63;;;10.20;99.90;;;;;;5052325;28;20024;-58
2022/04/07 08:11:31;;;;;;;1.35;0.70;;;10.20;99.90;;;;;;5052462;28;20016;-57
2022/04/07 08:13:56;;;;;;;1.60;1.00;;;10.20;99.90;;;;;;5054661;28;20044;-57
2022/04/07 08:16:22;;;;;;;4.10;1.13;;;10.20;99.90;;;;;;5053793;28;20194;-59
2022/04/07 08:18:47;;;;;;;0.63;0.60;;;10.20;99.90;;;;;;5061114;28;20032;-57
2022/04/07 08:21:13;;;;;;;1.35;0.90;;;10.20;99.90;;;;;;5052696;28;20052;-56
2022/04/07 08:23:38;;;;;;;1.13;0.93;;;10.20;99.90;;;;;;5053796;28;20102;-58
2022/04/07 08:26:04;;;;;;;2.45;0.63;;;10.20;99.90;;;;;;5059412;28;20095;-56
2022/04/07 08:28:29;;;;;;;0.57;0.52;;;10.30;99.90;;;;;;5054327;28;20108;-55
2022/04/07 08:30:55;;;;;;;1.05;0.50;;;10.30;99.90;;;;;;5058630;28;20108;-57
2022/04/07 08:33:20;;;;;;;2.42;0.65;;;10.40;99.90;;;;;;5055393;28;20027;-57
2022/04/07 08:35:46;;;;;;;3.85;1.92;;;10.30;99.90;;;;;;5058777;28;20039;-58
2022/04/07 08:38:15;;;;;;;2.20;1.00;;;10.30;99.90;;;;;;5060010;28;20027;-58
2022/04/07 08:40:42;;;;;;;5.63;2.80;;;10.30;99.90;;;;;;5050394;28;20021;-59
2022/04/07 08:43:08;;;;;;;2.03;1.23;;;10.30;99.90;;;;;;5056429;28;20112;-50
2022/04/07 08:45:36;;;;;;;6.43;3.88;;;10.30;99.90;;;;;;5059303;28;20128;-53
2022/04/07 08:48:03;;;;;;;9.75;6.53;;;10.30;99.90;;;;;;5057608;28;20036;-54
2022/04/07 08:50:34;;;;;;;2.97;0.82;;;10.30;99.90;;;;;;5035368;28;20033;-57
2022/04/07 08:53:01;;;;;;;0.50;0.50;;;10.40;99.90;;;;;;5051943;28;20009;-54
2022/04/07 08:55:27;;;;;;;0.50;0.50;;;10.50;99.90;;;;;;5055126;28;20111;-58
2022/04/07 08:57:52;;;;;;;1.08;0.88;;;10.50;99.90;;;;;;5070273;28;20100;-55
2022/04/07 09:00:18;;;;;;;4.38;2.28;;;10.50;99.90;;;;;;5069006;28;20067;-54
2022/04/07 09:02:43;;;;;;;1.52;1.27;;;10.60;99.90;;;;;;5060139;28;20020;-58
2022/04/07 09:05:12;;;;;;;1.17;1.00;;;10.70;99.90;;;;;;5055775;28;20024;-58
2022/04/07 09:07:39;;;;;;;1.67;1.33;;;10.70;99.90;;;;;;5049909;28;20052;-56
2022/04/07 09:10:05;;;;;;;1.48;0.82;;;10.70;99.90;;;;;;5052199;28;20037;-56
2022/04/07 09:12:31;;;;;;;1.38;0.93;;;10.70;99.90;;;;;;5050621;28;20029;-55
2022/04/07 09:14:58;;;;;;;2.95;1.10;;;10.70;99.90;;;;;;5070214;28;20028;-58
2022/04/07 09:17:24;;;;;;;3.15;1.30;;;10.70;99.90;;;;;;5054185;28;20017;-58
2022/04/07 09:19:50;;;;;;;3.08;1.15;;;10.70;99.90;;;;;;5058436;28;20492;-59
2022/04/07 09:22:16;;;;;;;1.50;0.80;;;10.80;99.90;;;;;;5071547;28;20039;-58
2022/04/07 09:24:42;;;;;;;2.30;1.42;;;10.80;99.90;;;;;;5062991;28;20028;-57
2022/04/07 09:27:09;;;;;;;1.10;1.00;;;10.90;99.90;;;;;;5054908;28;20025;-52
2022/04/07 09:29:46;;;;;;;1.10;0.85;;;11.00;99.90;;;;;;5054981;28;20519;-58
2022/04/07 09:32:19;;;;;;;1.85;1.17;;;11.20;99.90;;;;;;5062708;28;20053;-58
2022/04/07 09:34:51;;;;;;;2.20;2.00;;;11.30;99.90;;;;;;5066189;28;20115;-57
2022/04/07 09:37:20;;;;;;;1.50;1.17;;;11.50;99.90;;;;;;5069469;28;20434;-61
2022/04/07 09:39:46;;;;;;;4.80;4.13;;;11.50;99.90;;;;;;5066949;28;20036;-61
2022/04/07 09:42:23;;;;;;;22.80;13.95;;;11.60;99.90;;;;;;5072195;28;20036;-61
2022/04/07 09:44:51;;;;;;;9.20;7.43;;;11.60;99.90;;;;;;5059144;28;20021;-56
2022/04/07 09:47:19;;;;;;;3.63;3.33;;;11.60;99.90;;;;;;5070977;28;20021;-56
2022/04/07 09:49:45;;;;;;;1.60;1.50;;;11.70;99.90;;;;;;5065058;28;20472;-60
2022/04/07 09:52:11;;;;;;;1.10;1.00;;;11.80;99.90;;;;;;5045251;28;20094;-60
2022/04/07 09:54:40;;;;;;;3.33;1.63;;;11.80;99.90;;;;;;5059366;28;20025;-57
2022/04/07 09:57:09;;;;;;;0.95;0.80;;;11.90;99.90;;;;;;5057922;28;20028;-58
2022/04/07 09:59:39;;;;;;;1.80;1.38;;;11.90;99.90;;;;;;5066843;28;20036;-58
2022/04/07 10:02:05;;;;;;;1.60;0.90;;;11.90;99.90;;;;;;5067139;28;20148;-59
2022/04/07 10:04:32;;;;;;;1.17;0.90;;;12.00;99.90;;;;;;5063332;28;20052;-60
2022/04/07 10:07:00;;;;;;;1.70;1.33;;;12.10;99.90;;;;;;5053337;28;20063;-57
2022/04/07 10:09:27;;;;;;;1.52;1.27;;;12.20;99.90;;;;;;5057226;28;20028;-58
2022/04/07 10:11:53;;;;;;;2.38;0.90;;;12.20;99.90;;;;;;5073201;28;20021;-59
2022/04/07 10:14:21;;;;;;;0.50;0.50;;;12.30;99.90;;;;;;5064010;28;20447;-60
2022/04/07 10:16:47;;;;;;;3.35;0.98;;;12.40;99.90;;;;;;5059436;28;20460;-58
2022/04/07 10:19:16;;;;;;;0.70;0.70;;;12.40;99.90;;;;;;5054779;28;20048;-57
2022/04/07 10:22:19;;;;;;;1.98;0.90;;;12.40;99.90;;;;;;5064496;28;20036;-59
2022/04/07 10:24:48;;;;;;;1.90;1.48;;;12.30;99.90;;;;;;5055675;28;20492;-56
2022/04/07 10:27:19;;;;;;;2.60;0.90;;;12.30;99.90;;;;;;5052848;28;20476;-59
2022/04/07 10:30:01;;;;;;;0.40;0.40;;;12.20;99.90;;;;;;5056917;28;20025;-58
2022/04/07 10:32:35;;;;;;;0.52;0.52;;;12.20;99.90;;;;;;5060096;28;20013;-57
2022/04/07 10:35:00;;;;;;;1.30;0.88;;;12.10;99.90;;;;;;5056476;28;20600;-59
2022/04/07 10:37:30;;;;;;;0.90;0.70;;;12.00;99.90;;;;;;5063801;28;20484;-60
2022/04/07 10:39:55;;;;;;;2.35;2.10;;;11.80;99.90;;;;;;5060617;28;20032;-58
2022/04/07 10:42:58;;;;;;;4.95;1.58;;;11.50;99.90;;;;;;5062197;28;20029;-58
2022/04/07 10:45:31;;;;;;;8.50;2.58;;;11.30;99.90;;;;;;5061234;28;20035;-57
2022/04/07 10:48:29;;;;;;;6.82;5.35;;;11.10;99.90;;;;;;5057723;28;20033;-58
2022/04/07 10:50:54;;;;;;;1.52;0.93;;;10.90;99.90;;;;;;5064761;28;20017;-56
2022/04/07 10:53:34;;;;;;;2.10;0.70;;;10.80;99.90;;;;;;5030978;28;20071;-56
2022/04/07 10:56:32;;;;;;;2.58;0.50;;;10.70;99.90;;;;;;5060966;28;20052;-54
2022/04/07 10:59:16;;;;;;;4.43;1.13;;;10.50;99.90;;;;;;5062041;28;20427;-59
2022/04/07 11:01:42;;;;;;;2.47;0.73;;;10.40;99.90;;;;;;5062306;28;20115;-58
2022/04/07 11:04:25;;;;;;;3.05;0.70;;;10.30;99.90;;;;;;5058966;28;20186;-59
2022/04/07 11:07:09;;;;;;;2.70;1.00;;;10.20;99.90;;;;;;5054314;28;20534;-57
2022/04/07 11:09:43;;;;;;;3.63;1.02;;;10.10;99.90;;;;;;5057331;28;20033;-58
2022/04/07 11:12:10;;;;;;;2.13;0.85;;;10.00;99.90;;;;;;5052978;28;20490;-54
2022/04/07 11:14:35;;;;;;;1.77;1.10;;;9.90;99.90;;;;;;5053633;28;20020;-55
2022/04/07 11:17:05;;;;;;;1.98;0.90;;;9.80;99.90;;;;;;5055922;28;20376;-55
2022/04/07 11:19:57;;;;;;;7.28;0.80;;;9.90;99.90;;;;;;5063236;28;20052;-59
2022/04/07 11:22:52;;;;;;;2.75;1.90;;;9.90;99.90;;;;;;5053532;28;21795;-54
2022/04/07 11:25:20;;;;;;;8.95;5.53;;;9.70;99.90;;;;;;5055070;28;20525;-55
2022/04/07 11:28:12;;;;;;;8.63;6.65;;;9.70;99.90;;;;;;5055882;28;20530;-57
2022/04/07 11:30:42;;;;;;;3.25;2.10;;;9.80;99.90;;;;;;5065931;28;20020;-56
2022/04/07 11:33:14;;;;;;;1.48;0.73;;;10.10;99.90;;;;;;5070121;28;20099;-54
2022/04/07 11:35:39;;;;;;;1.02;0.63;;;10.30;99.90;;;;;;5070135;28;20021;-58
2022/04/07 11:38:05;;;;;;;1.08;0.70;;;10.40;99.90;;;;;;5062521;28;20021;-56
2022/04/07 11:40:31;;;;;;;6.60;3.05;;;10.50;99.90;;;;;;5063642;28;20483;-56
2022/04/07 11:42:58;;;;;;;3.78;1.40;;;10.60;99.90;;;;;;5063986;28;20037;-57
2022/04/07 11:45:33;;;;;;;7.28;2.53;;;10.70;99.90;;;;;;5061643;28;20032;-58
2022/04/07 11:47:58;;;;;;;2.65;1.58;;;10.90;99.90;;;;;;5056301;28;20056;-53
2022/04/07 11:50:24;;;;;;;3.28;1.45;;;11.10;99.90;;;;;;5057236;28;20111;-58
2022/04/07 11:52:50;;;;;;;6.18;1.70;;;11.30;99.90;;;;;;5026208;28;20655;-55
2022/04/07 11:55:27;;;;;;;3.00;1.83;;;11.50;99.90;;;;;;5063008;28;20483;-58
2022/04/07 11:58:00;;;;;;;2.35;1.35;;;11.70;99.90;;;;;;5056198;28;20028;-58
2022/04/07 12:00:30;;;;;;;2.80;1.47;;;11.90;99.90;;;;;;5058013;28;20487;-55
2022/04/07 12:02:59;;;;;;;10.60;4.25;;;11.90;99.90;;;;;;5056824;28;20059;-57
2022/04/07 12:05:25;;;;;;;4.75;2.13;;;11.90;99.90;;;;;;5054974;28;20483;-55
2022/04/07 12:07:51;;;;;;;6.38;2.88;;;11.90;99.90;;;;;;5059288;28;20032;-57
2022/04/07 12:10:16;;;;;;;4.53;1.50;;;12.00;99.90;;;;;;5057054;28;20633;-55
2022/04/07 12:12:42;;;;;;;2.38;1.08;;;12.20;99.80;;;;;;5068094;28;20434;-59
2022/04/07 12:15:13;;;;;;;2.45;1.08;;;12.30;96.90;;;;;;5055399;28;20020;-49
2022/04/07 12:18:06;;;;;;;3.05;1.75;;;12.30;98.40;;;;;;5059309;28;20317;-56
2022/04/07 12:20:32;;;;;;;3.03;2.20;;;12.40;99.30;;;;;;5054242;28;20025;-54
2022/04/07 12:23:12;;;;;;;1.33;1.00;;;12.60;97.50;;;;;;5053625;28;20020;-58
2022/04/07 12:25:39;;;;;;;1.20;1.02;;;12.60;96.60;;;;;;5055874;28;20021;-58
2022/04/07 12:28:16;;;;;;;10.35;6.07;;;12.50;96.50;;;;;;5060834;28;20025;-55
2022/04/07 12:30:50;;;;;;;5.03;2.20;;;12.50;96.00;;;;;;5055687;28;20033;-58
2022/04/07 12:33:40;;;;;;;2.67;1.10;;;12.60;95.90;;;;;;5056138;28;20657;-58
2022/04/07 12:36:11;;;;;;;4.13;1.42;;;12.90;96.40;;;;;;5055815;28;20214;-57
2022/04/07 12:38:38;;;;;;;1.88;1.23;;;13.10;93.50;;;;;;5055967;28;20024;-57
2022/04/07 12:41:11;;;;;;;2.97;1.55;;;13.10;94.80;;;;;;5057894;28;20043;-59
2022/04/07 12:43:50;;;;;;;12.40;1.90;;;12.90;93.40;;;;;;5058108;28;20025;-60
2022/04/07 12:46:17;;;;;;;4.18;1.08;;;12.90;92.70;;;;;;5058990;28;20283;-58
2022/04/07 12:49:06;;;;;;;2.60;1.08;;;12.90;92.70;;;;;;5062088;28;20157;-60
2022/04/07 12:51:39;;;;;;;4.97;1.30;;;13.00;92.10;;;;;;5053624;28;20032;-56
2022/04/07 12:54:12;;;;;;;7.55;1.58;;;13.10;92.70;;;;;;5022701;28;20132;-58
2022/04/07 12:56:40;;;;;;;6.45;2.15;;;13.30;91.70;;;;;;5062628;28;20025;-58